createdAt,value
2023-02-01T00:00:46.218Z,96128.00
2023-02-01T00:06:13.985Z,96128.00
2023-02-01T00:11:42.074Z,96132.00
2023-02-01T00:17:10.597Z,96134.00
2023-02-01T00:22:38.449Z,96132.00
2023-02-01T00:28:06.367Z,96120.00
2023-02-01T00:33:35.721Z,96118.00
2023-02-01T00:39:03.683Z,96111.00
2023-02-01T00:44:35.400Z,96101.00
2023-02-01T00:50:03.361Z,96113.00
2023-02-01T00:55:32.202Z,96106.00
2023-02-01T01:01:07.484Z,96104.00
2023-02-01T01:06:35.699Z,96101.00
2023-02-01T01:12:04.846Z,96099.00
2023-02-01T01:17:33.308Z,96103.00
2023-02-01T01:23:01.229Z,96095.00
2023-02-01T01:28:29.217Z,96106.00
2023-02-01T01:34:00.806Z,96086.00
2023-02-01T01:39:32.025Z,96088.00
2023-02-01T01:45:06.409Z,96085.00
2023-02-01T01:50:42.162Z,96059.00
2023-02-01T01:56:10.180Z,96051.00
2023-02-01T02:01:38.301Z,96050.00
2023-02-01T02:07:15.742Z,96034.00
2023-02-01T02:12:49.002Z,96049.00
2023-02-01T02:18:43.993Z,96043.00
2023-02-01T02:24:54.949Z,96035.00
2023-02-01T02:30:35.837Z,96048.00
2023-02-01T02:36:19.219Z,96070.00
2023-02-01T02:42:27.378Z,96053.00
2023-02-01T02:48:22.417Z,96048.00
2023-02-01T02:54:16.413Z,96053.00
2023-02-01T03:00:06.518Z,96026.00
2023-02-01T03:05:37.501Z,96032.00
2023-02-01T03:11:10.190Z,96022.00
2023-02-01T03:16:42.745Z,96030.00
2023-02-01T03:22:16.615Z,95999.00
2023-02-01T03:27:54.839Z,96007.00
2023-02-01T03:33:26.576Z,96017.00
2023-02-01T03:39:19.602Z,96030.00
2023-02-01T03:45:11.398Z,96017.00
2023-02-01T03:50:47.752Z,96016.00
2023-02-01T03:56:19.483Z,96008.00
2023-02-01T04:01:47.394Z,95996.00
2023-02-01T04:07:15.340Z,96014.00
2023-02-01T04:12:44.231Z,96018.00
2023-02-01T04:18:12.134Z,96010.00
2023-02-01T04:23:39.930Z,96002.00
2023-02-01T04:29:09.956Z,96012.00
2023-02-01T04:34:37.826Z,95997.00
2023-02-01T04:40:06.687Z,96000.00
2023-02-01T04:45:35.611Z,95991.00
2023-02-01T04:51:03.401Z,96022.00
2023-02-01T04:56:31.526Z,96010.00
2023-02-01T05:02:01.558Z,95993.00
2023-02-01T05:07:29.450Z,96013.00
2023-02-01T05:13:15.553Z,95981.00
2023-02-01T05:18:44.423Z,96007.00
2023-02-01T05:24:20.561Z,96006.00
2023-02-01T05:29:48.291Z,96000.00
2023-02-01T05:35:16.602Z,96019.00
2023-02-01T05:40:50.573Z,96015.00
2023-02-01T05:46:18.542Z,96008.00
2023-02-01T05:51:46.574Z,95998.00
2023-02-01T05:57:15.048Z,96010.00
2023-02-01T06:02:43.431Z,95990.00
2023-02-01T06:08:11.243Z,96002.00
2023-02-01T06:13:39.755Z,96002.00
2023-02-01T06:19:07.615Z,96005.00
2023-02-01T06:24:35.462Z,95986.00
2023-02-01T06:30:05.051Z,95996.00
2023-02-01T06:35:33.052Z,95995.00
2023-02-01T06:41:00.799Z,96007.00
2023-02-01T06:46:28.659Z,96006.00
2023-02-01T06:51:56.462Z,95997.00
2023-02-01T06:57:24.317Z,95991.00
2023-02-01T07:02:52.325Z,95993.00
2023-02-01T07:08:20.100Z,95997.00
2023-02-01T07:13:47.998Z,95999.00
2023-02-01T07:19:15.887Z,96010.00
2023-02-01T07:24:43.762Z,96008.00
2023-02-01T07:30:12.527Z,95966.00
2023-02-01T07:35:40.290Z,95957.00
2023-02-01T07:41:09.266Z,95966.00
2023-02-01T07:46:37.282Z,95988.00
2023-02-01T07:52:05.110Z,95978.00
2023-02-01T07:57:32.915Z,95964.00
2023-02-01T08:03:01.238Z,95986.00
2023-02-01T08:08:29.059Z,95986.00
2023-02-01T08:13:57.127Z,96003.00
2023-02-01T08:19:24.902Z,96011.00
2023-02-01T08:24:52.770Z,96022.00
2023-02-01T08:30:21.680Z,96021.00
2023-02-01T08:35:49.722Z,96022.00
2023-02-01T08:41:23.144Z,96020.00
2023-02-01T08:46:50.955Z,96037.00
2023-02-01T08:52:19.835Z,96007.00
2023-02-01T08:57:48.032Z,96006.00
2023-02-01T09:03:16.311Z,96001.00
2023-02-01T09:08:44.737Z,95995.00
2023-02-01T09:14:12.506Z,96024.00
2023-02-01T09:19:42.963Z,96020.00
2023-02-01T09:25:10.888Z,95999.00
2023-02-01T09:30:39.368Z,96009.00
2023-02-01T09:36:07.967Z,96008.00
2023-02-01T09:41:50.801Z,96023.00
2023-02-01T09:47:25.376Z,96022.00
2023-02-01T09:53:11.987Z,96040.00
2023-02-01T09:58:44.534Z,96034.00
2023-02-01T10:04:15.873Z,96051.00
2023-02-01T10:10:21.989Z,96050.00
2023-02-01T10:16:14.477Z,96030.00
2023-02-01T10:21:57.633Z,96037.00
2023-02-01T10:27:35.178Z,96038.00
2023-02-01T10:33:18.407Z,96051.00
2023-02-01T10:38:46.782Z,96046.00
2023-02-01T10:44:21.152Z,96058.00
2023-02-01T10:50:03.751Z,96047.00
2023-02-01T10:55:58.873Z,96046.00
2023-02-01T11:01:41.319Z,96049.00
2023-02-01T11:07:26.655Z,96054.00
2023-02-01T11:12:58.721Z,96042.00
2023-02-01T11:18:30.697Z,96060.00
2023-02-01T11:24:06.370Z,96056.00
2023-02-01T11:29:40.463Z,96037.00
2023-02-01T11:35:14.437Z,96078.00
2023-02-01T11:40:42.314Z,96078.00
2023-02-01T11:46:26.370Z,96063.00
2023-02-01T11:52:00.036Z,96037.00
2023-02-01T11:57:53.945Z,96046.00
2023-02-01T12:04:06.308Z,96049.00
2023-02-01T12:09:59.661Z,96023.00
2023-02-01T12:15:50.317Z,96027.00
2023-02-01T12:22:12.636Z,96019.00
2023-02-01T12:28:16.814Z,96016.00
2023-02-01T12:34:25.956Z,95987.00
2023-02-01T12:40:37.990Z,96008.00
2023-02-01T12:46:18.642Z,95994.00
2023-02-01T12:51:50.464Z,96004.00
2023-02-01T12:57:42.979Z,95984.00
2023-02-01T13:03:41.340Z,95985.00
2023-02-01T13:09:32.524Z,95959.00
2023-02-01T13:15:24.447Z,95956.00
2023-02-01T13:21:05.095Z,95939.00
2023-02-01T13:26:33.108Z,95953.00
2023-02-01T13:33:50.739Z,95958.00
2023-02-01T13:38:40.944Z,95946.00
2023-02-01T13:44:20.172Z,95939.00
2023-02-01T13:49:48.290Z,95960.00
2023-02-01T13:55:22.408Z,95959.00
2023-02-01T14:00:54.675Z,95965.00
2023-02-01T14:06:28.666Z,95979.00
2023-02-01T14:12:00.292Z,95986.00
2023-02-01T14:17:35.184Z,95984.00
2023-02-01T14:23:05.847Z,95972.00
2023-02-01T14:28:33.807Z,95971.00
2023-02-01T14:34:13.112Z,95967.00
2023-02-01T14:39:47.193Z,95967.00
2023-02-01T14:45:23.318Z,95962.00
2023-02-01T14:50:53.386Z,95970.00
2023-02-01T14:56:22.932Z,95951.00
2023-02-01T15:01:58.498Z,95978.00
2023-02-01T15:07:28.350Z,95965.00
2023-02-01T15:12:56.174Z,95954.00
2023-02-01T15:18:24.011Z,95981.00
2023-02-01T15:23:52.115Z,95982.00
2023-02-01T15:29:28.943Z,95997.00
2023-02-01T15:34:56.920Z,95993.00
2023-02-01T15:40:25.423Z,96012.00
2023-02-01T15:45:57.743Z,96007.00
2023-02-01T15:51:30.714Z,96005.00
2023-02-01T15:57:02.646Z,96010.00
2023-02-01T16:02:45.044Z,96013.00
2023-02-01T16:08:29.204Z,96013.00
2023-02-01T16:13:58.936Z,96023.00
2023-02-01T16:19:29.333Z,96017.00
2023-02-01T16:24:58.685Z,96031.00
2023-02-01T16:30:26.636Z,96032.00
2023-02-01T16:36:03.167Z,96045.00
2023-02-01T16:41:31.606Z,96048.00
2023-02-01T16:47:00.026Z,96045.00
2023-02-01T16:52:28.423Z,96041.00
2023-02-01T16:57:56.515Z,96033.00
2023-02-01T17:03:24.600Z,96030.00
2023-02-01T17:08:56.499Z,96021.00
2023-02-01T17:14:26.275Z,96015.00
2023-02-01T17:19:55.302Z,96024.00
2023-02-01T17:25:24.017Z,96034.00
2023-02-01T17:30:52.435Z,96007.00
2023-02-01T17:36:20.628Z,95997.00
2023-02-01T17:41:48.667Z,96003.00
2023-02-01T17:47:16.918Z,96018.00
2023-02-01T17:52:45.383Z,95995.00
2023-02-01T17:58:15.449Z,96009.00
2023-02-01T18:03:43.679Z,95982.00
2023-02-01T18:09:11.570Z,95996.00
2023-02-01T18:14:39.432Z,96015.00
2023-02-01T18:20:08.208Z,96009.00
2023-02-01T18:25:38.782Z,96001.00
2023-02-01T18:31:07.524Z,96027.00
2023-02-01T18:36:35.582Z,96025.00
2023-02-01T18:42:03.683Z,96007.00
2023-02-01T18:47:31.655Z,96020.00
2023-02-01T18:53:02.871Z,96026.00
2023-02-01T18:58:32.005Z,95998.00
2023-02-01T19:04:09.632Z,96022.00
2023-02-01T19:09:42.858Z,95989.00
2023-02-01T19:15:16.741Z,96003.00
2023-02-01T19:20:46.098Z,96019.00
2023-02-01T19:26:16.927Z,95999.00
2023-02-01T19:31:47.212Z,95988.00
2023-02-01T19:37:15.217Z,95984.00
2023-02-01T19:42:43.594Z,96008.00
2023-02-01T19:48:13.269Z,96008.00
2023-02-01T19:53:42.208Z,96001.00
2023-02-01T19:59:12.861Z,96006.00
2023-02-01T20:04:40.148Z,96040.00
2023-02-01T20:10:09.919Z,96006.00
2023-02-01T20:15:38.825Z,96026.00
2023-02-01T20:21:09.847Z,96018.00
2023-02-01T20:26:38.771Z,96018.00
2023-02-01T20:32:06.658Z,96027.00
2023-02-01T20:37:37.805Z,96020.00
2023-02-01T20:43:05.754Z,96002.00
2023-02-01T20:48:33.725Z,96021.00
2023-02-01T20:54:01.809Z,96014.00
2023-02-01T20:59:29.903Z,96015.00
2023-02-01T21:04:57.710Z,96026.00
2023-02-01T21:10:25.609Z,96022.00
2023-02-01T21:15:54.146Z,96005.00
2023-02-01T21:21:22.139Z,95989.00
2023-02-01T21:26:50.169Z,96000.00
2023-02-01T21:32:18.086Z,95988.00
2023-02-01T21:37:46.768Z,96022.00
2023-02-01T21:43:14.771Z,96007.00
2023-02-01T21:49:05.399Z,95984.00
2023-02-01T21:54:30.836Z,95990.00
2023-02-01T21:59:59.398Z,95998.00
2023-02-01T22:05:27.491Z,96003.00
2023-02-01T22:10:55.493Z,96006.00
2023-02-01T22:16:24.019Z,96014.00
2023-02-01T22:21:51.975Z,96040.00
2023-02-01T22:27:20.215Z,96013.00
2023-02-01T22:32:54.736Z,96015.00
2023-02-01T22:38:25.491Z,95995.00
2023-02-01T22:43:53.697Z,96022.00
2023-02-01T22:49:21.649Z,96006.00
2023-02-01T22:54:49.727Z,96005.00
2023-02-01T23:00:17.969Z,95992.00
2023-02-01T23:05:45.917Z,95966.00
2023-02-01T23:11:14.442Z,95999.00
2023-02-01T23:16:47.850Z,95994.00
2023-02-01T23:22:15.762Z,96008.00
2023-02-01T23:27:44.337Z,95982.00
2023-02-01T23:33:12.186Z,95995.00
2023-02-01T23:38:40.003Z,95988.00
2023-02-01T23:44:07.937Z,95991.00
2023-02-01T23:49:35.721Z,96012.00
2023-02-01T23:55:04.962Z,96000.00
